Time;durP1;ratioP1;P1;durP2;ratioP2;P2;SDS_P1;SDS_P2;PMS_P1;PMS_P2;Temp;Humidity;BMP_temperature;BMP_pressure;BME280_temperature;BME280_humidity;BME280_pressure;Samples;Min_cycle;Max_cycle;Signal;HPM_P1;HPM_P2
2021/07/13 00:01:02;;;;;;;23.33;22.00;;;21.10;80.80;;;;;;4990028;28;20462;-71
2021/07/13 00:03:29;;;;;;;23.70;22.40;;;21.00;81.30;;;;;;4991250;28;20473;-72
2021/07/13 00:05:56;;;;;;;23.67;22.37;;;21.10;81.00;;;;;;4988311;28;21148;-71
2021/07/13 00:08:25;;;;;;;23.13;21.93;;;21.20;80.70;;;;;;4992019;28;20481;-71
2021/07/13 00:10:52;;;;;;;22.80;21.53;;;21.20;80.40;;;;;;4991012;28;21734;-71
2021/07/13 00:13:19;;;;;;;23.17;21.80;;;21.00;80.80;;;;;;4990147;28;20468;-71
2021/07/13 00:15:46;;;;;;;23.93;22.60;;;21.00;81.10;;;;;;4990934;28;20600;-71
2021/07/13 00:18:13;;;;;;;23.60;22.30;;;20.80;81.50;;;;;;4991430;28;20450;-71
2021/07/13 00:20:41;;;;;;;23.67;22.37;;;20.80;81.70;;;;;;4990814;28;20468;-71
2021/07/13 00:23:08;;;;;;;22.70;21.60;;;20.70;81.90;;;;;;4991049;28;20454;-71
2021/07/13 00:25:36;;;;;;;23.07;21.63;;;20.70;82.20;;;;;;4990313;28;20575;-74
2021/07/13 00:28:04;;;;;;;22.80;21.60;;;20.60;82.70;;;;;;4990813;28;20463;-71
2021/07/13 00:30:31;;;;;;;22.87;21.47;;;20.40;83.50;;;;;;4990015;28;20956;-72
2021/07/13 00:32:58;;;;;;;22.10;20.80;;;20.40;83.90;;;;;;4989172;28;20457;-71
2021/07/13 00:35:25;;;;;;;22.00;20.80;;;20.40;84.10;;;;;;4991001;28;20505;-71
2021/07/13 00:37:52;;;;;;;22.27;20.97;;;20.50;84.20;;;;;;4988740;28;20458;-71
2021/07/13 00:40:21;;;;;;;21.90;20.80;;;20.50;84.30;;;;;;4989419;28;20465;-71
2021/07/13 00:42:52;;;;;;;21.80;20.60;;;20.50;84.40;;;;;;4990120;28;20464;-71
2021/07/13 00:45:19;;;;;;;21.90;20.70;;;20.50;84.60;;;;;;4990191;28;20488;-71
2021/07/13 00:47:48;;;;;;;21.77;20.40;;;20.60;84.30;;;;;;4990145;28;20458;-71
2021/07/13 00:50:17;;;;;;;21.40;20.40;;;20.70;84.00;;;;;;4991391;28;20461;-71
2021/07/13 00:52:44;;;;;;;21.30;20.20;;;20.60;84.40;;;;;;4989036;28;20469;-71
2021/07/13 00:55:12;;;;;;;21.10;19.97;;;20.50;84.80;;;;;;4990875;28;20496;-71
2021/07/13 00:57:39;;;;;;;21.10;19.97;;;20.50;85.10;;;;;;4992820;28;20462;-71
2021/07/13 01:00:10;;;;;;;21.40;20.30;;;20.40;85.30;;;;;;4990215;28;20501;-71
2021/07/13 01:02:37;;;;;;;22.00;20.53;;;20.40;85.40;;;;;;4989733;28;20576;-71
2021/07/13 01:05:09;;;;;;;21.17;20.07;;;20.40;85.30;;;;;;4990575;28;20485;-71
2021/07/13 01:07:45;;;;;;;21.50;20.20;;;20.50;85.30;;;;;;4986440;28;20992;-71
2021/07/13 01:10:17;;;;;;;21.00;19.90;;;20.50;84.90;;;;;;4990950;28;20464;-71
2021/07/13 01:13:01;;;;;;;20.93;19.83;;;20.40;85.20;;;;;;4988731;28;21329;-71
2021/07/13 01:15:32;;;;;;;20.40;19.33;;;20.20;86.10;;;;;;4989026;28;21025;-71
2021/07/13 01:18:04;;;;;;;20.83;19.67;;;20.20;86.50;;;;;;4990049;28;20537;-71
2021/07/13 01:21:07;;;;;;;21.20;19.90;;;20.10;86.70;;;;;;4990970;28;20451;-71
2021/07/13 01:23:44;;;;;;;20.60;19.60;;;20.10;87.20;;;;;;4980947;28;20459;-71
2021/07/13 01:26:20;;;;;;;20.50;19.40;;;20.00;87.40;;;;;;4988195;28;20855;-71
2021/07/13 01:28:57;;;;;;;20.30;19.27;;;20.10;87.30;;;;;;4989902;28;20450;-71
2021/07/13 01:31:26;;;;;;;20.10;19.00;;;20.00;87.80;;;;;;4987789;28;21159;-71
2021/07/13 01:34:00;;;;;;;20.97;19.67;;;19.90;88.50;;;;;;4988879;28;20446;-71
2021/07/13 01:36:31;;;;;;;19.97;18.97;;;19.60;89.20;;;;;;4988976;28;20487;-71
2021/07/13 01:39:00;;;;;;;19.33;18.33;;;19.60;89.20;;;;;;4989783;28;20513;-71
2021/07/13 01:41:30;;;;;;;19.70;18.60;;;19.60;89.00;;;;;;4989140;28;20939;-71
2021/07/13 01:43:59;;;;;;;18.60;17.70;;;19.70;88.80;;;;;;4989163;28;21009;-71
2021/07/13 01:46:27;;;;;;;19.43;18.43;;;19.80;88.20;;;;;;4988277;28;20568;-71
2021/07/13 01:48:57;;;;;;;19.57;18.60;;;19.80;88.40;;;;;;4989961;28;20462;-71
2021/07/13 01:51:25;;;;;;;19.10;18.10;;;19.70;88.80;;;;;;4988507;28;20461;-71
2021/07/13 01:53:53;;;;;;;18.93;17.83;;;19.80;88.50;;;;;;4988918;28;21386;-71
2021/07/13 01:56:22;;;;;;;18.83;17.83;;;19.70;88.80;;;;;;4989172;28;20596;-71
2021/07/13 01:58:50;;;;;;;18.90;18.00;;;19.80;88.70;;;;;;4991677;28;20461;-71
2021/07/13 02:01:23;;;;;;;19.50;18.37;;;19.80;88.40;;;;;;4989959;28;20546;-71
2021/07/13 02:03:53;;;;;;;18.90;17.90;;;19.90;88.40;;;;;;4986310;28;20462;-72
2021/07/13 02:06:24;;;;;;;19.20;18.00;;;19.80;89.00;;;;;;4990257;28;20547;-71
2021/07/13 02:08:53;;;;;;;19.60;18.43;;;19.90;89.20;;;;;;4988754;28;20493;-71
2021/07/13 02:11:20;;;;;;;19.10;18.20;;;19.90;89.50;;;;;;4989787;28;20466;-71
2021/07/13 02:13:48;;;;;;;19.63;18.53;;;19.80;89.90;;;;;;4988827;28;20462;-71
2021/07/13 02:16:15;;;;;;;18.50;17.40;;;19.80;89.80;;;;;;4989882;28;20477;-71
2021/07/13 02:18:43;;;;;;;18.80;17.73;;;19.80;90.00;;;;;;4989001;28;20464;-72
2021/07/13 02:21:10;;;;;;;21.07;19.83;;;19.80;90.30;;;;;;4989985;28;20948;-71
2021/07/13 02:23:37;;;;;;;18.87;17.60;;;19.90;90.50;;;;;;4988603;28;20544;-71
2021/07/13 02:26:06;;;;;;;18.80;17.80;;;19.80;90.50;;;;;;4988628;28;20616;-71
2021/07/13 02:28:37;;;;;;;19.20;17.87;;;19.90;90.40;;;;;;4989177;28;20454;-71
2021/07/13 02:31:11;;;;;;;18.40;17.50;;;19.80;90.30;;;;;;4990093;28;20536;-71
2021/07/13 02:33:46;;;;;;;19.10;17.90;;;19.80;90.20;;;;;;4988080;28;20492;-71
2021/07/13 02:36:18;;;;;;;19.47;18.47;;;19.80;90.30;;;;;;4989059;28;20485;-71
2021/07/13 02:38:46;;;;;;;18.33;17.33;;;19.80;90.70;;;;;;4988912;28;20467;-71
2021/07/13 02:41:14;;;;;;;18.53;17.63;;;19.80;90.80;;;;;;4988164;28;20476;-71
2021/07/13 02:43:42;;;;;;;19.20;18.00;;;19.90;90.60;;;;;;4988461;28;20483;-71
2021/07/13 02:46:09;;;;;;;18.70;17.67;;;19.80;90.90;;;;;;4989296;28;20477;-71
2021/07/13 02:48:37;;;;;;;18.90;17.73;;;19.80;90.90;;;;;;4988947;28;20823;-71
2021/07/13 02:51:06;;;;;;;19.10;18.07;;;19.70;91.40;;;;;;4989710;28;20454;-71
2021/07/13 02:53:34;;;;;;;18.40;17.47;;;19.60;92.40;;;;;;4982484;28;20947;-71
2021/07/13 02:56:02;;;;;;;19.77;18.67;;;19.40;92.90;;;;;;4988494;28;20488;-71
2021/07/13 02:58:29;;;;;;;17.87;16.87;;;19.40;93.10;;;;;;4989897;28;20457;-71
2021/07/13 03:00:58;;;;;;;18.10;17.00;;;19.50;92.90;;;;;;4989790;28;20463;-71
2021/07/13 03:03:25;;;;;;;20.47;19.10;;;19.60;92.80;;;;;;4988860;28;20468;-71
2021/07/13 03:05:54;;;;;;;18.30;17.20;;;19.50;92.90;;;;;;4989472;28;20481;-71
2021/07/13 03:08:23;;;;;;;19.40;18.30;;;19.50;93.10;;;;;;4988975;28;20981;-71
2021/07/13 03:10:51;;;;;;;19.47;18.37;;;19.50;93.00;;;;;;4989452;28;21083;-71
2021/07/13 03:13:21;;;;;;;18.83;17.63;;;19.50;92.90;;;;;;4988381;28;20464;-71
2021/07/13 03:15:49;;;;;;;19.47;18.07;;;19.60;92.80;;;;;;4990572;28;20545;-71
2021/07/13 03:18:16;;;;;;;17.93;17.03;;;19.70;92.40;;;;;;4991831;28;20483;-71
2021/07/13 03:20:44;;;;;;;20.60;19.40;;;19.70;92.00;;;;;;4992750;28;20561;-71
2021/07/13 03:23:12;;;;;;;18.53;17.50;;;19.70;92.00;;;;;;4990899;28;20457;-71
2021/07/13 03:25:42;;;;;;;20.07;19.07;;;19.70;91.80;;;;;;4992220;28;20477;-71
2021/07/13 03:28:11;;;;;;;18.60;17.30;;;19.70;92.40;;;;;;4991997;28;20465;-71
2021/07/13 03:30:38;;;;;;;19.40;18.07;;;19.70;92.30;;;;;;4992732;28;20460;-71
2021/07/13 03:33:07;;;;;;;20.43;19.00;;;19.70;92.40;;;;;;4991318;28;20462;-71
2021/07/13 03:35:34;;;;;;;18.27;17.17;;;19.70;92.60;;;;;;4992064;28;21233;-71
2021/07/13 03:38:02;;;;;;;18.00;17.03;;;19.80;92.30;;;;;;4991109;28;20474;-71
2021/07/13 03:40:29;;;;;;;18.37;17.47;;;19.80;92.50;;;;;;4992633;28;20457;-71
2021/07/13 03:42:58;;;;;;;18.57;17.43;;;19.70;92.80;;;;;;4991343;28;20950;-71
2021/07/13 03:45:28;;;;;;;18.23;17.43;;;19.70;93.00;;;;;;4991736;28;20573;-71
2021/07/13 03:47:57;;;;;;;18.27;17.30;;;19.70;92.80;;;;;;4990999;28;20465;-71
2021/07/13 03:50:26;;;;;;;18.63;17.63;;;19.80;92.50;;;;;;4992155;28;20469;-71
2021/07/13 03:52:53;;;;;;;18.80;17.60;;;19.80;92.00;;;;;;4990953;28;20995;-71
2021/07/13 03:55:20;;;;;;;17.77;16.87;;;19.90;92.00;;;;;;4992224;28;20908;-71
2021/07/13 03:57:48;;;;;;;18.77;17.77;;;19.90;92.40;;;;;;4996052;28;20548;-72
2021/07/13 04:00:19;;;;;;;20.17;19.07;;;19.90;92.30;;;;;;4990713;28;21020;-71
2021/07/13 04:02:45;;;;;;;18.10;17.17;;;19.90;91.80;;;;;;4990355;28;20461;-71
2021/07/13 04:05:13;;;;;;;21.87;20.70;;;19.90;91.60;;;;;;4991302;28;20482;-71
2021/07/13 04:07:41;;;;;;;18.87;17.87;;;19.90;91.60;;;;;;4991499;28;20458;-72
2021/07/13 04:10:10;;;;;;;20.50;19.40;;;19.60;92.70;;;;;;4991440;28;20984;-71
2021/07/13 04:12:37;;;;;;;20.40;19.20;;;19.70;92.90;;;;;;4991117;28;20554;-71
2021/07/13 04:15:05;;;;;;;18.67;17.60;;;19.60;93.30;;;;;;4990607;28;21337;-71
2021/07/13 04:17:33;;;;;;;20.57;19.33;;;19.60;93.40;;;;;;4989562;28;20872;-71
2021/07/13 04:20:00;;;;;;;20.27;19.17;;;19.60;93.70;;;;;;4991455;28;20915;-71
2021/07/13 04:22:27;;;;;;;19.63;18.53;;;19.50;94.10;;;;;;4990774;28;20458;-71
2021/07/13 04:24:54;;;;;;;20.27;19.17;;;19.50;94.60;;;;;;4988173;28;20488;-71
2021/07/13 04:27:21;;;;;;;20.33;19.00;;;19.60;94.60;;;;;;4989901;28;20533;-71
2021/07/13 04:29:48;;;;;;;19.77;18.47;;;19.50;94.20;;;;;;4991733;28;20457;-71
2021/07/13 04:32:15;;;;;;;19.57;18.47;;;19.50;94.40;;;;;;4991564;28;20449;-71
2021/07/13 04:34:43;;;;;;;19.10;18.10;;;19.60;94.30;;;;;;4990263;28;20469;-73
2021/07/13 04:37:10;;;;;;;20.13;19.03;;;19.60;93.60;;;;;;4991662;28;20545;-73
2021/07/13 04:39:37;;;;;;;21.03;19.93;;;19.60;93.90;;;;;;4990661;28;20569;-73
2021/07/13 04:42:04;;;;;;;23.20;21.70;;;19.70;93.40;;;;;;4989316;28;20929;-71
2021/07/13 04:44:31;;;;;;;21.37;20.03;;;19.80;93.20;;;;;;4989342;28;20552;-70
2021/07/13 04:46:58;;;;;;;20.33;19.23;;;20.00;92.70;;;;;;4991466;28;20888;-71
2021/07/13 04:49:31;;;;;;;21.13;19.90;;;20.20;92.00;;;;;;4990530;28;20466;-71
2021/07/13 04:51:59;;;;;;;21.20;20.00;;;20.20;91.60;;;;;;4991534;28;20462;-70
2021/07/13 04:54:26;;;;;;;20.17;19.00;;;20.40;90.40;;;;;;4989862;28;20465;-71
2021/07/13 04:56:53;;;;;;;21.43;20.13;;;20.30;90.70;;;;;;4991017;28;21122;-70
2021/07/13 04:59:20;;;;;;;22.63;21.43;;;20.20;91.00;;;;;;4990408;28;20497;-70
2021/07/13 05:01:47;;;;;;;21.53;20.20;;;20.30;91.00;;;;;;4991147;28;20458;-71
2021/07/13 05:04:14;;;;;;;22.30;21.00;;;20.20;91.10;;;;;;4988957;28;20805;-74
2021/07/13 05:06:41;;;;;;;21.77;20.27;;;20.20;91.20;;;;;;4986941;28;20523;-73
2021/07/13 05:09:09;;;;;;;21.60;20.50;;;20.20;91.00;;;;;;4989173;28;21024;-74
2021/07/13 05:11:37;;;;;;;22.50;21.20;;;20.30;90.80;;;;;;4990061;28;20780;-74
2021/07/13 05:14:04;;;;;;;21.23;20.13;;;20.30;90.70;;;;;;4989460;28;21030;-73
2021/07/13 05:16:32;;;;;;;22.03;20.90;;;20.30;90.30;;;;;;4990719;28;20478;-74
2021/07/13 05:19:00;;;;;;;24.30;22.90;;;20.30;90.60;;;;;;4988527;28;20537;-77
2021/07/13 05:21:27;;;;;;;24.03;22.73;;;20.40;90.40;;;;;;4989422;28;20466;-74
2021/07/13 05:23:54;;;;;;;20.57;19.57;;;20.50;90.30;;;;;;4986383;28;20461;-71
2021/07/13 05:26:22;;;;;;;19.17;18.17;;;20.60;90.20;;;;;;4988027;28;20573;-70
2021/07/13 05:28:50;;;;;;;20.67;19.50;;;20.70;89.80;;;;;;4981966;28;20470;-70
2021/07/13 05:31:17;;;;;;;20.80;19.80;;;20.70;89.20;;;;;;4989413;28;20797;-71
2021/07/13 05:33:44;;;;;;;20.80;19.70;;;20.70;89.20;;;;;;4988998;28;20715;-71
2021/07/13 05:36:11;;;;;;;24.20;23.00;;;20.90;88.70;;;;;;4989388;28;20481;-71
2021/07/13 05:38:40;;;;;;;25.73;24.43;;;20.80;87.90;;;;;;4985071;28;22231;-70
2021/07/13 05:41:07;;;;;;;21.75;20.45;;;20.90;87.90;;;;;;4990691;28;20951;-71
2021/07/13 05:43:35;;;;;;;22.65;21.55;;;21.00;87.90;;;;;;4988807;28;20901;-71
2021/07/13 05:46:02;;;;;;;23.10;21.77;;;21.10;87.60;;;;;;4989229;28;20222;-70
2021/07/13 05:48:29;;;;;;;23.93;22.73;;;21.00;87.00;;;;;;4990443;28;20456;-70
2021/07/13 05:50:56;;;;;;;21.97;20.87;;;21.00;87.00;;;;;;4987395;28;20469;-71
2021/07/13 05:53:23;;;;;;;22.30;21.03;;;20.90;87.00;;;;;;4990303;28;20466;-71
2021/07/13 05:55:50;;;;;;;24.20;22.80;;;21.00;87.00;;;;;;4988533;28;20482;-71
2021/07/13 05:58:20;;;;;;;23.03;21.73;;;21.00;86.80;;;;;;4994058;28;20464;-71
2021/07/13 06:00:48;;;;;;;25.03;23.63;;;21.10;86.60;;;;;;4988398;28;20485;-71
2021/07/13 06:03:15;;;;;;;23.27;21.97;;;21.00;87.30;;;;;;4987068;28;21018;-71
2021/07/13 06:05:44;;;;;;;21.13;20.03;;;21.00;87.70;;;;;;4990778;28;20495;-72
2021/07/13 06:08:10;;;;;;;22.60;21.40;;;21.00;88.10;;;;;;4989411;28;20464;-70
2021/07/13 06:10:37;;;;;;;24.10;22.80;;;20.90;88.60;;;;;;4983283;28;20481;-71
2021/07/13 06:13:04;;;;;;;21.93;20.70;;;21.00;88.60;;;;;;4989069;28;20462;-71
2021/07/13 06:15:31;;;;;;;24.20;22.90;;;20.80;88.60;;;;;;4988016;28;20474;-70
2021/07/13 06:18:00;;;;;;;23.47;21.77;;;20.80;88.80;;;;;;4987899;28;20458;-71
2021/07/13 06:20:27;;;;;;;21.00;19.90;;;20.80;88.90;;;;;;4997356;28;20814;-73
2021/07/13 06:22:53;;;;;;;23.50;22.00;;;20.80;89.00;;;;;;4989997;28;20963;-72
2021/07/13 06:25:20;;;;;;;21.23;20.00;;;20.80;89.30;;;;;;4989932;28;20491;-72
2021/07/13 06:27:49;;;;;;;20.50;19.40;;;20.90;89.20;;;;;;4988906;28;21912;-71
2021/07/13 06:30:18;;;;;;;19.80;18.70;;;20.90;89.00;;;;;;4989600;28;20552;-71
2021/07/13 06:32:45;;;;;;;21.53;20.43;;;21.00;88.30;;;;;;4988217;28;20883;-71
2021/07/13 06:35:14;;;;;;;22.20;20.90;;;20.80;88.60;;;;;;4989283;28;20484;-71
2021/07/13 06:37:41;;;;;;;20.57;19.40;;;20.70;89.30;;;;;;4992929;28;20454;-71
2021/07/13 06:40:09;;;;;;;21.03;19.90;;;20.70;89.00;;;;;;4986730;28;20548;-71
2021/07/13 06:42:36;;;;;;;23.13;21.70;;;20.70;89.10;;;;;;4987741;28;20532;-71
2021/07/13 06:45:03;;;;;;;20.23;19.23;;;20.90;88.90;;;;;;4987682;28;20484;-71
2021/07/13 06:47:30;;;;;;;24.60;23.13;;;21.00;87.90;;;;;;4988891;28;20480;-71
2021/07/13 06:49:57;;;;;;;27.70;26.00;;;21.00;86.90;;;;;;4989614;28;20457;-71
2021/07/13 06:52:25;;;;;;;25.53;23.77;;;21.10;86.20;;;;;;4992492;28;20468;-71
2021/07/13 06:54:52;;;;;;;27.33;25.50;;;21.10;86.30;;;;;;4992786;28;20493;-71
2021/07/13 06:57:21;;;;;;;23.53;21.87;;;21.10;85.10;;;;;;4998572;28;20490;-71
2021/07/13 06:59:48;;;;;;;23.80;22.40;;;21.10;85.50;;;;;;4993597;28;20461;-71
2021/07/13 07:02:15;;;;;;;22.67;21.13;;;21.10;86.20;;;;;;4991220;28;20824;-71
2021/07/13 07:04:42;;;;;;;22.23;20.87;;;21.30;85.70;;;;;;4992631;28;21011;-70
2021/07/13 07:07:09;;;;;;;22.23;20.83;;;21.30;85.80;;;;;;4993392;28;20487;-71
2021/07/13 07:09:37;;;;;;;23.50;22.00;;;21.30;86.40;;;;;;4992304;28;20568;-72
2021/07/13 07:12:04;;;;;;;22.90;21.50;;;21.20;86.80;;;;;;4990721;28;20457;-72
2021/07/13 07:14:31;;;;;;;20.90;19.80;;;21.10;87.20;;;;;;4991178;28;20458;-70
2021/07/13 07:16:58;;;;;;;20.60;19.50;;;21.00;87.40;;;;;;4991147;28;20449;-70
2021/07/13 07:19:25;;;;;;;22.27;21.07;;;21.00;87.50;;;;;;4989604;28;20828;-69
2021/07/13 07:21:52;;;;;;;23.00;21.70;;;21.00;87.60;;;;;;4982120;28;20952;-70
2021/07/13 07:24:18;;;;;;;22.57;21.17;;;21.00;87.70;;;;;;4986073;28;20449;-69
2021/07/13 07:26:47;;;;;;;20.10;19.10;;;20.90;88.00;;;;;;4986365;28;20491;-70
2021/07/13 07:29:14;;;;;;;20.03;18.97;;;20.90;88.30;;;;;;4985022;28;22037;-69
2021/07/13 07:31:41;;;;;;;20.37;19.27;;;20.80;88.40;;;;;;4985656;28;20543;-70
2021/07/13 07:34:08;;;;;;;21.57;20.37;;;20.80;88.40;;;;;;4987602;28;20878;-69
2021/07/13 07:36:35;;;;;;;21.07;19.87;;;20.70;88.90;;;;;;4984276;28;20577;-69
2021/07/13 07:39:02;;;;;;;22.17;20.90;;;20.70;89.10;;;;;;4984234;28;20827;-70
2021/07/13 07:41:29;;;;;;;19.97;18.77;;;20.70;89.20;;;;;;4985126;28;20465;-70
2021/07/13 07:43:59;;;;;;;20.97;19.87;;;20.70;89.20;;;;;;4987601;28;20541;-70
2021/07/13 07:46:26;;;;;;;20.83;19.83;;;20.60;89.50;;;;;;4985068;28;22650;-70
2021/07/13 07:48:53;;;;;;;20.90;19.90;;;20.40;90.10;;;;;;4987549;28;20964;-69
2021/07/13 07:51:20;;;;;;;20.80;19.70;;;20.30;90.50;;;;;;4982674;28;20462;-69
2021/07/13 07:53:47;;;;;;;18.53;17.63;;;20.30;90.80;;;;;;4986385;28;20858;-69
2021/07/13 07:56:14;;;;;;;20.37;19.30;;;20.20;90.30;;;;;;4982976;28;20483;-69
2021/07/13 07:58:41;;;;;;;19.57;18.53;;;20.10;89.70;;;;;;4984701;28;20460;-69
2021/07/13 08:01:10;;;;;;;21.10;20.00;;;20.00;90.20;;;;;;4983440;28;20466;-69
2021/07/13 08:03:37;;;;;;;22.30;21.10;;;19.90;91.00;;;;;;4985220;28;20462;-69
2021/07/13 08:06:04;;;;;;;20.87;19.83;;;19.90;91.20;;;;;;4986104;28;20478;-69
2021/07/13 08:08:31;;;;;;;18.73;17.83;;;19.80;92.00;;;;;;4986256;28;20465;-69
2021/07/13 08:10:58;;;;;;;20.00;18.80;;;19.80;91.60;;;;;;4983463;28;20470;-70
2021/07/13 08:13:25;;;;;;;18.73;17.73;;;19.80;91.60;;;;;;4988282;28;20559;-69
2021/07/13 08:15:54;;;;;;;19.07;18.07;;;19.90;92.00;;;;;;4984600;28;20481;-70
2021/07/13 08:18:22;;;;;;;20.30;19.20;;;19.90;92.00;;;;;;4985929;28;20476;-70
2021/07/13 08:20:49;;;;;;;18.80;17.80;;;20.00;92.00;;;;;;4988035;28;20454;-70
2021/07/13 08:23:16;;;;;;;18.90;17.80;;;20.20;91.50;;;;;;4988949;28;20467;-69
2021/07/13 08:25:43;;;;;;;18.50;17.50;;;20.30;91.00;;;;;;4989340;28;20526;-70
2021/07/13 08:28:10;;;;;;;20.03;18.90;;;20.50;90.60;;;;;;4984675;28;20489;-69
2021/07/13 08:30:37;;;;;;;19.73;18.50;;;20.50;90.50;;;;;;4979050;28;20475;-70
2021/07/13 08:33:04;;;;;;;20.43;19.43;;;20.60;90.40;;;;;;4984998;28;20457;-70
2021/07/13 08:35:33;;;;;;;19.87;18.60;;;20.70;89.60;;;;;;4984630;28;21029;-69
2021/07/13 08:38:00;;;;;;;21.17;19.97;;;20.80;89.70;;;;;;4983110;28;20662;-69
2021/07/13 08:40:29;;;;;;;25.30;23.70;;;20.80;89.70;;;;;;4984635;28;20475;-70
2021/07/13 08:42:56;;;;;;;22.53;21.17;;;20.80;89.50;;;;;;4984905;28;20465;-70
2021/07/13 08:45:24;;;;;;;21.57;20.13;;;20.80;89.50;;;;;;4992984;28;20478;-69
2021/07/13 08:47:52;;;;;;;22.90;21.60;;;20.80;89.30;;;;;;4989179;28;20576;-69
2021/07/13 08:50:21;;;;;;;20.53;19.30;;;20.80;89.00;;;;;;4990425;28;20492;-70
2021/07/13 08:52:50;;;;;;;21.70;20.30;;;20.70;88.90;;;;;;4983804;28;20461;-69
2021/07/13 08:55:18;;;;;;;20.57;19.37;;;20.70;88.70;;;;;;4986019;28;20557;-70
2021/07/13 08:57:46;;;;;;;21.60;20.30;;;20.60;88.80;;;;;;4989768;28;20469;-70
2021/07/13 09:00:15;;;;;;;20.93;19.63;;;20.30;89.50;;;;;;4983151;28;20970;-69
2021/07/13 09:03:08;;;;;;;23.23;21.90;;;20.10;90.80;;;;;;4984007;28;20472;-70
2021/07/13 09:05:43;;;;;;;20.17;19.17;;;20.20;91.10;;;;;;4989990;28;20477;-70
2021/07/13 09:08:17;;;;;;;20.33;19.10;;;20.30;91.40;;;;;;4989000;28;20982;-70
2021/07/13 09:11:06;;;;;;;19.00;17.90;;;20.30;91.60;;;;;;4989157;28;20461;-70
2021/07/13 09:13:36;;;;;;;20.13;18.80;;;20.20;91.00;;;;;;4987585;28;20559;-71
2021/07/13 09:16:05;;;;;;;19.03;17.83;;;19.70;92.20;;;;;;4989059;28;20543;-69
2021/07/13 09:18:34;;;;;;;17.57;16.67;;;19.50;92.40;;;;;;4988813;28;20464;-70
2021/07/13 09:21:10;;;;;;;16.90;16.20;;;19.40;92.10;;;;;;4988024;28;20553;-69
2021/07/13 09:24:02;;;;;;;16.37;15.57;;;19.30;93.50;;;;;;4988036;28;20464;-69
2021/07/13 09:26:46;;;;;;;17.20;16.40;;;19.30;93.30;;;;;;4988635;28;20513;-70
2021/07/13 09:29:48;;;;;;;15.87;15.17;;;19.40;93.20;;;;;;4984209;28;20816;-69
2021/07/13 09:32:29;;;;;;;18.03;17.13;;;19.40;91.10;;;;;;4924760;29;20462;-70
2021/07/13 09:34:59;;;;;;;17.10;16.30;;;19.20;90.50;;;;;;4925013;29;20488;-68
2021/07/13 09:37:27;;;;;;;17.60;16.80;;;19.10;90.60;;;;;;4960863;28;20462;-69
2021/07/13 09:39:57;;;;;;;16.00;15.30;;;19.00;91.40;;;;;;4986474;28;20458;-70
2021/07/13 09:42:25;;;;;;;16.10;15.33;;;19.00;91.70;;;;;;4987892;28;21379;-70
2021/07/13 09:44:52;;;;;;;16.00;15.10;;;19.10;92.20;;;;;;4985215;28;20493;-70
2021/07/13 09:47:29;;;;;;;17.47;16.67;;;19.10;91.00;;;;;;4988455;28;20473;-70
2021/07/13 09:49:58;;;;;;;16.37;15.57;;;19.10;91.40;;;;;;4987074;28;20520;-70
2021/07/13 09:52:26;;;;;;;16.00;15.20;;;19.20;90.90;;;;;;4988465;28;21274;-70
2021/07/13 09:54:53;;;;;;;15.47;14.77;;;19.10;90.30;;;;;;4976462;28;20485;-70
2021/07/13 09:57:23;;;;;;;17.07;16.37;;;19.20;89.60;;;;;;4993271;28;20484;-71
2021/07/13 09:59:52;;;;;;;18.80;18.00;;;19.10;88.40;;;;;;4984635;28;20507;-70
2021/07/13 10:02:23;;;;;;;16.10;15.40;;;19.00;88.90;;;;;;4987470;28;20457;-72
2021/07/13 10:04:50;;;;;;;18.60;17.70;;;19.00;89.20;;;;;;4985062;28;21010;-72
2021/07/13 10:07:19;;;;;;;17.70;16.90;;;19.00;88.50;;;;;;4986468;28;20525;-72
2021/07/13 10:09:48;;;;;;;17.70;16.80;;;19.00;88.40;;;;;;4986439;28;20544;-73
2021/07/13 10:12:17;;;;;;;18.10;17.30;;;19.00;88.20;;;;;;4985333;28;20991;-71
2021/07/13 10:14:48;;;;;;;17.80;17.00;;;19.00;88.60;;;;;;4990876;28;20536;-72
2021/07/13 10:17:17;;;;;;;17.57;16.77;;;19.00;88.00;;;;;;4987212;28;20839;-71
2021/07/13 10:19:50;;;;;;;19.90;18.90;;;19.00;88.00;;;;;;4987507;28;20469;-73
2021/07/13 10:22:19;;;;;;;17.97;17.07;;;19.00;88.30;;;;;;4987582;28;20472;-72
2021/07/13 10:24:49;;;;;;;18.47;17.67;;;19.00;88.10;;;;;;4986471;28;20481;-72
2021/07/13 10:27:23;;;;;;;18.90;17.87;;;19.00;88.70;;;;;;4986151;28;20474;-71
2021/07/13 10:29:52;;;;;;;18.30;17.07;;;19.00;88.10;;;;;;4991910;28;20467;-72
2021/07/13 10:32:39;;;;;;;17.30;16.50;;;19.30;88.10;;;;;;4992515;28;20464;-71
2021/07/13 10:35:23;;;;;;;18.13;17.40;;;19.40;86.90;;;;;;4992016;28;20481;-71
2021/07/13 10:37:51;;;;;;;18.10;17.30;;;19.60;87.10;;;;;;4991130;28;20536;-72
2021/07/13 10:40:43;;;;;;;18.80;17.83;;;19.70;86.20;;;;;;4990549;28;20972;-72
2021/07/13 10:43:18;;;;;;;20.10;19.00;;;19.90;86.30;;;;;;4989649;28;20496;-75
2021/07/13 10:45:49;;;;;;;20.40;19.50;;;19.90;85.50;;;;;;4989917;28;20477;-69
2021/07/13 10:48:17;;;;;;;20.00;19.00;;;19.80;84.10;;;;;;4988423;28;20493;-70
2021/07/13 10:50:47;;;;;;;19.00;18.10;;;19.60;84.70;;;;;;4991187;28;20540;-69
2021/07/13 10:53:23;;;;;;;19.10;18.17;;;19.50;84.40;;;;;;4990571;28;20468;-69
2021/07/13 10:55:59;;;;;;;19.87;18.97;;;19.50;84.60;;;;;;4986309;28;20588;-69
2021/07/13 10:58:31;;;;;;;19.10;18.20;;;19.30;85.00;;;;;;4989598;28;20456;-70
2021/07/13 11:01:08;;;;;;;19.37;18.47;;;19.20;84.80;;;;;;4989655;28;20461;-70
2021/07/13 11:04:10;;;;;;;19.53;18.43;;;19.20;85.30;;;;;;4988996;28;20453;-71
2021/07/13 11:06:48;;;;;;;18.23;17.43;;;19.20;84.70;;;;;;4990034;28;20472;-70
2021/07/13 11:09:24;;;;;;;19.17;18.27;;;19.00;85.30;;;;;;4989897;28;20467;-69
2021/07/13 11:11:52;;;;;;;21.00;19.83;;;19.00;85.10;;;;;;4989094;28;20568;-70
2021/07/13 11:14:19;;;;;;;19.20;18.20;;;19.10;86.80;;;;;;4991082;28;20885;-69
2021/07/13 11:16:51;;;;;;;20.40;19.10;;;19.40;87.10;;;;;;4987127;28;20458;-69
2021/07/13 11:19:18;;;;;;;20.93;19.73;;;19.60;86.30;;;;;;4989656;28;20457;-69
2021/07/13 11:21:47;;;;;;;21.53;20.33;;;19.80;85.40;;;;;;4988664;28;20462;-69
2021/07/13 11:24:16;;;;;;;19.13;18.13;;;19.80;84.80;;;;;;4987100;28;20503;-69
2021/07/13 11:26:45;;;;;;;22.30;21.30;;;19.80;84.80;;;;;;4990635;28;20496;-70
2021/07/13 11:29:18;;;;;;;21.43;20.23;;;19.80;84.00;;;;;;4990007;28;21241;-70
2021/07/13 11:31:49;;;;;;;19.60;18.63;;;19.80;83.30;;;;;;4990468;28;20473;-70
2021/07/13 11:34:19;;;;;;;19.70;18.80;;;19.70;83.50;;;;;;4990619;28;20484;-69
2021/07/13 11:36:48;;;;;;;21.57;20.47;;;19.60;83.90;;;;;;4989390;28;20468;-69
2021/07/13 11:39:21;;;;;;;21.77;20.47;;;19.50;84.00;;;;;;4989557;28;20457;-71
2021/07/13 11:41:51;;;;;;;19.83;18.93;;;19.50;83.90;;;;;;4988325;28;20544;-72
2021/07/13 11:44:17;;;;;;;20.23;19.23;;;19.40;84.30;;;;;;4990555;28;20969;-72
2021/07/13 11:46:48;;;;;;;22.60;21.50;;;19.40;84.20;;;;;;4989365;28;20854;-72
2021/07/13 11:49:17;;;;;;;23.60;22.40;;;19.50;84.30;;;;;;4990650;28;20545;-71
2021/07/13 11:51:53;;;;;;;20.73;19.57;;;19.40;84.70;;;;;;4982867;28;20454;-71
2021/07/13 11:54:21;;;;;;;21.07;19.97;;;19.50;84.50;;;;;;4985841;28;20544;-71
2021/07/13 11:56:51;;;;;;;20.13;19.20;;;19.60;83.80;;;;;;4989915;28;20466;-71
2021/07/13 11:59:22;;;;;;;20.57;19.40;;;19.70;83.20;;;;;;4990476;28;20469;-71
2021/07/13 12:01:54;;;;;;;23.03;21.90;;;19.70;83.00;;;;;;4988420;28;20454;-71
2021/07/13 12:04:22;;;;;;;21.50;20.40;;;19.70;82.20;;;;;;4989859;28;20552;-70
2021/07/13 12:06:52;;;;;;;20.10;19.10;;;19.80;83.20;;;;;;4981731;28;20464;-70
2021/07/13 12:09:23;;;;;;;22.40;21.20;;;19.90;82.80;;;;;;4981504;28;20480;-70
2021/07/13 12:11:52;;;;;;;20.67;19.67;;;19.90;82.40;;;;;;4984427;28;20450;-69
2021/07/13 12:14:20;;;;;;;21.13;20.13;;;20.00;81.90;;;;;;4983097;28;20606;-68
2021/07/13 12:16:48;;;;;;;21.10;20.00;;;20.10;81.30;;;;;;4986649;28;20977;-68
2021/07/13 12:19:18;;;;;;;23.43;22.30;;;20.20;81.20;;;;;;4984824;28;20505;-68
2021/07/13 12:21:48;;;;;;;21.20;20.20;;;20.30;81.20;;;;;;4985808;28;20480;-69
2021/07/13 12:24:18;;;;;;;23.00;21.77;;;20.30;81.30;;;;;;4988159;28;20502;-68
2021/07/13 12:26:50;;;;;;;21.47;20.37;;;20.50;81.10;;;;;;4984193;28;20499;-69
2021/07/13 12:29:18;;;;;;;24.60;23.37;;;20.60;80.00;;;;;;4990668;28;20485;-69
2021/07/13 12:31:54;;;;;;;22.03;20.93;;;20.50;79.50;;;;;;4979029;28;20466;-69
2021/07/13 12:34:24;;;;;;;21.80;20.80;;;20.50;79.80;;;;;;4989462;28;20808;-68
2021/07/13 12:36:52;;;;;;;22.50;21.40;;;20.70;79.30;;;;;;4987437;28;20544;-68
2021/07/13 12:39:20;;;;;;;22.07;20.97;;;20.70;79.80;;;;;;4989907;28;20492;-69